Terminal Aerodrome Forecast
Issued by NWS

Home | Current Version | Previous Version | Text Only | Print | Product List | Glossary Off
Versions: 1 2 3 4 5 6 7 8 9 10 11 12 13 14 15 16 17 18 19 20 21 22 23

000
FTUS43 KGRB 181936 AAA
TAFRHI
TAF AMD
KRHI 181936Z 1820/1918 31007G14KT P6SM BKN035
     FM182300 29004KT P6SM SCT035 BKN120
     FM190600 27003KT 5SM BR SCT150
      TEMPO 1907/1908 1 1/2SM BR
     FM190800 27003KT 2SM BR SCT150
      TEMPO 1909/1913 1/2SM FG BKN002
     FM191400 25008KT P6SM SCT200=

USA.gov is the U.S. government's official web portal to all federal, state and local government web resources and services.